createdAt,value
2023-03-04T00:00:10.595Z,68.20
2023-03-04T00:02:43.676Z,74.70
2023-03-04T00:05:16.957Z,74.80
2023-03-04T00:07:49.532Z,66.30
2023-03-04T00:10:23.220Z,70.80
2023-03-04T00:12:55.869Z,74.60
2023-03-04T00:15:28.987Z,54.00
2023-03-04T00:18:01.609Z,68.50
2023-03-04T00:20:34.395Z,76.00
2023-03-04T00:23:07.161Z,69.10
2023-03-04T00:25:41.450Z,68.40
2023-03-04T00:28:15.201Z,79.80
2023-03-04T00:30:47.997Z,76.50
2023-03-04T00:33:20.457Z,80.70
2023-03-04T00:35:54.470Z,73.10
2023-03-04T00:38:29.482Z,69.20
2023-03-04T00:41:02.490Z,67.10
2023-03-04T00:43:35.160Z,51.10
2023-03-04T00:46:08.232Z,53.10
2023-03-04T00:48:41.268Z,69.60
2023-03-04T00:51:14.264Z,59.60
2023-03-04T00:53:47.798Z,63.40
2023-03-04T00:56:21.061Z,73.50
2023-03-04T00:58:53.644Z,50.80
2023-03-04T01:01:26.554Z,62.90
2023-03-04T01:03:59.202Z,58.30
2023-03-04T01:06:32.676Z,56.20
2023-03-04T01:09:05.630Z,45.00
2023-03-04T01:11:38.720Z,52.50
2023-03-04T01:14:11.331Z,58.40
2023-03-04T01:16:44.245Z,59.80
2023-03-04T01:19:17.189Z,47.90
2023-03-04T01:21:55.289Z,58.00
2023-03-04T01:24:27.829Z,58.00
2023-03-04T01:27:04.664Z,57.90
2023-03-04T01:29:37.544Z,42.30
2023-03-04T01:32:10.526Z,61.60
2023-03-04T01:34:43.906Z,56.30
2023-03-04T01:37:17.207Z,57.50
2023-03-04T01:39:52.945Z,60.70
2023-03-04T01:42:28.507Z,65.30
2023-03-04T01:45:01.057Z,64.50
2023-03-04T01:47:37.079Z,62.30
2023-03-04T01:50:19.641Z,66.70
2023-03-04T01:52:52.510Z,63.60
2023-03-04T01:55:27.050Z,69.10
2023-03-04T01:58:00.812Z,65.70
2023-03-04T02:00:35.501Z,70.10
2023-03-04T02:03:11.988Z,67.30
2023-03-04T02:05:48.880Z,69.60
2023-03-04T02:08:24.613Z,68.90
2023-03-04T02:10:57.674Z,55.20
2023-03-04T02:13:30.420Z,59.50
2023-03-04T02:16:03.076Z,86.40
2023-03-04T02:18:36.260Z,61.40
2023-03-04T02:21:16.143Z,61.00
2023-03-04T02:23:55.853Z,58.70
2023-03-04T02:26:31.009Z,60.50
2023-03-04T02:29:06.231Z,55.50
2023-03-04T02:31:41.830Z,55.80
2023-03-04T02:34:18.091Z,52.40
2023-03-04T02:36:52.756Z,52.90
2023-03-04T02:39:33.379Z,53.20
2023-03-04T02:42:06.620Z,54.40
2023-03-04T02:44:42.845Z,55.70
2023-03-04T02:47:18.251Z,52.10
2023-03-04T02:49:51.633Z,52.80
2023-03-04T02:52:28.421Z,59.50
2023-03-04T02:55:03.921Z,65.50
2023-03-04T02:57:36.961Z,67.10
2023-03-04T03:00:12.775Z,54.10
2023-03-04T03:02:46.309Z,67.50
2023-03-04T03:05:19.992Z,66.00
2023-03-04T03:10:24.722Z,63.20
2023-03-04T03:12:57.281Z,78.20
2023-03-04T03:15:30.467Z,68.20
2023-03-04T03:18:03.115Z,65.10
2023-03-04T03:20:36.152Z,44.70
2023-03-04T03:23:10.362Z,61.50
2023-03-04T03:25:42.981Z,64.00
2023-03-04T03:28:15.368Z,68.90
2023-03-04T03:30:48.067Z,67.40
2023-03-04T03:33:21.074Z,63.00
2023-03-04T03:35:54.057Z,49.80
2023-03-04T03:38:28.399Z,72.00
2023-03-04T03:41:01.208Z,60.90
2023-03-04T03:43:33.833Z,38.30
2023-03-04T03:46:08.398Z,43.00
2023-03-04T03:48:40.767Z,40.80
2023-03-04T03:51:13.448Z,44.30
2023-03-04T03:53:46.509Z,42.10
2023-03-04T03:56:19.129Z,40.90
2023-03-04T03:58:51.633Z,41.90
2023-03-04T04:01:24.892Z,38.10
2023-03-04T04:03:58.377Z,32.90
2023-03-04T04:06:31.370Z,39.30
2023-03-04T04:09:03.903Z,38.50
2023-03-04T04:11:36.551Z,40.30
2023-03-04T04:14:09.060Z,44.40
2023-03-04T04:16:41.916Z,43.80
2023-03-04T04:19:19.994Z,39.40
2023-03-04T04:21:52.971Z,42.90
2023-03-04T04:24:25.561Z,43.00
2023-03-04T04:26:59.570Z,31.10
2023-03-04T04:29:32.102Z,41.20
2023-03-04T04:32:05.267Z,42.70
2023-03-04T04:34:38.367Z,27.90
2023-03-04T04:37:11.207Z,40.80
2023-03-04T04:39:43.962Z,40.80
2023-03-04T04:42:16.615Z,33.30
2023-03-04T04:44:49.168Z,39.10
2023-03-04T04:47:21.836Z,39.80
2023-03-04T04:49:54.545Z,41.80
2023-03-04T04:52:27.574Z,38.80
2023-03-04T04:55:00.098Z,37.50
2023-03-04T04:57:32.853Z,43.10
2023-03-04T05:00:06.222Z,45.60
2023-03-04T05:02:38.903Z,39.40
2023-03-04T05:05:12.607Z,34.80
2023-03-04T05:10:16.545Z,41.00
2023-03-04T05:12:50.318Z,36.60
2023-03-04T05:17:55.212Z,39.20
2023-03-04T05:20:28.931Z,41.20
2023-03-04T05:25:32.551Z,35.80
2023-03-04T05:28:06.452Z,40.80
2023-03-04T05:30:39.635Z,35.50
2023-03-04T05:33:14.820Z,32.50
2023-03-04T05:35:49.020Z,36.90
2023-03-04T05:38:23.175Z,35.60
2023-03-04T05:41:00.689Z,35.80
2023-03-04T05:43:36.088Z,35.80
2023-03-04T05:46:09.066Z,35.40
2023-03-04T05:48:41.809Z,40.70
2023-03-04T05:51:17.190Z,38.80
2023-03-04T05:53:50.296Z,33.00
2023-03-04T05:56:23.612Z,39.80
2023-03-04T05:58:58.511Z,36.80
2023-03-04T06:01:31.683Z,39.10
2023-03-04T06:04:04.718Z,39.10
2023-03-04T06:06:37.572Z,32.10
2023-03-04T06:09:10.271Z,32.40
2023-03-04T06:11:43.012Z,30.60
2023-03-04T06:14:15.817Z,29.50
2023-03-04T06:16:48.521Z,30.60
2023-03-04T06:19:21.301Z,31.20
2023-03-04T06:21:54.257Z,34.80
2023-03-04T06:24:28.798Z,36.80
2023-03-04T06:27:02.025Z,34.30
2023-03-04T06:29:34.937Z,35.50
2023-03-04T06:32:08.900Z,22.60
2023-03-04T06:34:41.725Z,31.80
2023-03-04T06:37:15.018Z,30.60
2023-03-04T06:39:48.488Z,26.70
2023-03-04T06:42:21.068Z,33.10
2023-03-04T06:44:53.847Z,36.80
2023-03-04T06:47:27.178Z,34.50
2023-03-04T06:50:00.297Z,31.20
2023-03-04T06:52:32.789Z,37.60
2023-03-04T06:55:10.732Z,36.10
2023-03-04T06:57:43.913Z,31.20
2023-03-04T07:00:19.987Z,36.40
2023-03-04T07:02:54.991Z,32.20
2023-03-04T07:05:28.487Z,32.30
2023-03-04T07:08:01.146Z,38.00
2023-03-04T07:10:34.141Z,34.80
2023-03-04T07:13:06.673Z,34.60
2023-03-04T07:15:39.392Z,38.00
2023-03-04T07:18:12.047Z,28.80
2023-03-04T07:20:44.887Z,35.80
2023-03-04T07:23:17.696Z,36.00
2023-03-04T07:25:50.980Z,37.50
2023-03-04T07:28:23.628Z,33.70
2023-03-04T07:30:56.513Z,29.80
2023-03-04T07:33:30.647Z,38.50
2023-03-04T07:36:06.721Z,30.20
2023-03-04T07:38:39.580Z,30.90
2023-03-04T07:41:12.577Z,36.10
2023-03-04T07:43:45.623Z,28.40
2023-03-04T07:46:19.381Z,31.10
2023-03-04T07:51:26.666Z,32.10
2023-03-04T07:54:02.259Z,57.70
2023-03-04T07:56:36.434Z,41.90
2023-03-04T08:01:41.402Z,34.00
2023-03-04T08:04:14.136Z,36.00
2023-03-04T08:06:49.068Z,37.30
2023-03-04T08:09:21.540Z,42.00
2023-03-04T08:11:54.432Z,40.30
2023-03-04T08:14:27.096Z,42.70
2023-03-04T08:16:59.860Z,37.60
2023-03-04T08:19:33.947Z,40.80
2023-03-04T08:22:12.330Z,39.60
2023-03-04T08:24:46.908Z,37.10
2023-03-04T08:27:20.062Z,39.90
2023-03-04T08:29:52.596Z,42.10
2023-03-04T08:32:25.537Z,40.40
2023-03-04T08:34:58.945Z,43.70
2023-03-04T08:37:31.804Z,49.00
2023-03-04T08:40:04.616Z,39.70
2023-03-04T08:42:37.480Z,42.40
2023-03-04T08:45:11.815Z,33.90
2023-03-04T08:47:44.612Z,38.80
2023-03-04T08:50:21.371Z,39.80
2023-03-04T08:52:55.472Z,40.80
2023-03-04T08:58:01.295Z,35.90
2023-03-04T09:00:34.058Z,34.80
2023-03-04T09:03:08.398Z,39.00
2023-03-04T09:05:40.993Z,34.30
2023-03-04T09:08:13.921Z,27.70
2023-03-04T09:10:47.105Z,36.40
2023-03-04T09:13:25.147Z,36.00
2023-03-04T09:15:59.045Z,38.80
2023-03-04T09:18:32.967Z,35.80
2023-03-04T09:23:37.827Z,32.50
2023-03-04T09:26:24.467Z,37.90
2023-03-04T09:28:59.565Z,34.30
2023-03-04T09:31:35.137Z,37.90
2023-03-04T09:34:08.250Z,33.50
2023-03-04T09:36:40.953Z,36.30
2023-03-04T09:39:14.443Z,28.40
2023-03-04T09:41:48.930Z,36.10
2023-03-04T09:44:27.871Z,35.00
2023-03-04T09:47:04.917Z,43.70
2023-03-04T09:49:40.471Z,48.10
2023-03-04T09:52:25.934Z,51.50
2023-03-04T09:55:15.267Z,43.80
2023-03-04T09:57:58.485Z,42.60
2023-03-04T10:00:40.946Z,41.60
2023-03-04T10:03:23.263Z,40.30
2023-03-04T10:06:00.776Z,41.20
2023-03-04T10:08:47.223Z,48.90
2023-03-04T10:11:24.270Z,40.10
2023-03-04T10:14:06.634Z,41.80
2023-03-04T10:16:46.108Z,41.40
2023-03-04T10:19:31.467Z,38.60
2023-03-04T10:22:15.047Z,32.90
2023-03-04T10:24:48.805Z,36.90
2023-03-04T10:27:24.148Z,39.00
2023-03-04T10:29:56.721Z,30.50
2023-03-04T10:32:30.024Z,34.60
2023-03-04T10:35:02.630Z,38.70
2023-03-04T10:37:51.143Z,36.70
2023-03-04T10:40:26.761Z,36.70
2023-03-04T10:43:01.597Z,39.50
2023-03-04T10:45:37.002Z,38.20
2023-03-04T10:48:19.558Z,39.60
2023-03-04T10:50:52.130Z,40.50
2023-03-04T10:53:35.288Z,41.30
2023-03-04T10:56:30.226Z,38.80
2023-03-04T10:59:42.935Z,43.00
2023-03-04T11:02:25.207Z,37.80
2023-03-04T11:05:06.797Z,35.40
2023-03-04T11:07:55.001Z,37.20
2023-03-04T11:10:31.891Z,40.50
2023-03-04T11:13:14.508Z,39.20
2023-03-04T11:15:58.433Z,38.10
2023-03-04T11:21:07.713Z,30.30
2023-03-04T11:23:48.911Z,44.70
2023-03-04T11:26:25.614Z,36.50
2023-03-04T11:29:07.503Z,44.60
2023-03-04T11:31:45.639Z,38.80
2023-03-04T11:34:29.594Z,37.30
2023-03-04T11:37:08.567Z,35.60
2023-03-04T11:39:43.195Z,30.70
2023-03-04T11:42:25.533Z,34.70
2023-03-04T11:44:59.451Z,37.40
2023-03-04T11:47:47.920Z,36.80
2023-03-04T11:50:31.148Z,36.40
2023-03-04T11:53:35.493Z,41.90
2023-03-04T11:56:26.794Z,39.30
2023-03-04T11:59:28.958Z,41.30
2023-03-04T12:02:17.546Z,43.50
2023-03-04T12:05:18.430Z,44.90
2023-03-04T12:08:10.463Z,51.90
2023-03-04T12:10:50.978Z,46.10
2023-03-04T12:13:43.322Z,44.10
2023-03-04T12:16:31.707Z,46.90
2023-03-04T12:19:24.797Z,51.10
2023-03-04T12:22:14.251Z,43.00
2023-03-04T12:25:32.441Z,46.40
2023-03-04T12:28:19.291Z,49.60
2023-03-04T12:31:04.259Z,51.10
2023-03-04T12:33:46.280Z,57.60
2023-03-04T12:36:29.687Z,53.10
2023-03-04T12:39:22.458Z,57.80
2023-03-04T12:42:07.940Z,56.50
2023-03-04T12:44:46.200Z,56.10
2023-03-04T12:47:33.348Z,56.90
2023-03-04T12:50:33.701Z,55.70
2023-03-04T12:53:19.246Z,50.80
2023-03-04T12:55:56.974Z,55.60
2023-03-04T12:58:31.400Z,55.30
2023-03-04T13:01:13.146Z,59.70
2023-03-04T13:03:55.454Z,55.00
2023-03-04T13:06:38.004Z,56.90
2023-03-04T13:09:16.669Z,58.70
2023-03-04T13:12:07.118Z,57.30
2023-03-04T13:14:39.688Z,52.70
2023-03-04T13:17:43.740Z,50.20
2023-03-04T13:20:25.205Z,51.30
2023-03-04T13:23:02.072Z,52.70
2023-03-04T13:25:44.485Z,56.30
2023-03-04T13:28:33.117Z,51.30
2023-03-04T13:31:24.605Z,48.80
2023-03-04T13:34:29.461Z,57.50
2023-03-04T13:37:03.525Z,54.00
2023-03-04T13:39:37.807Z,65.60
2023-03-04T13:42:36.827Z,61.10
2023-03-04T13:45:37.181Z,65.80
2023-03-04T13:48:25.504Z,63.20
2023-03-04T13:50:58.478Z,60.80
2023-03-04T13:53:50.283Z,64.90
2023-03-04T13:56:37.265Z,61.50
2023-03-04T13:59:28.860Z,59.40
2023-03-04T14:02:17.414Z,62.00
2023-03-04T14:04:58.565Z,70.80
2023-03-04T14:07:33.990Z,61.80
2023-03-04T14:10:10.301Z,62.30
2023-03-04T14:12:48.293Z,56.30
2023-03-04T14:15:26.474Z,39.70
2023-03-04T14:18:00.675Z,64.50
2023-03-04T14:20:35.255Z,81.40
2023-03-04T14:23:25.027Z,76.00
2023-03-04T14:26:07.752Z,63.70
2023-03-04T14:28:49.534Z,58.80
2023-03-04T14:31:27.932Z,57.80
2023-03-04T14:34:04.696Z,56.70
2023-03-04T14:36:57.446Z,48.60
2023-03-04T14:39:33.385Z,56.60
2023-03-04T14:42:11.583Z,57.00
2023-03-04T14:44:49.179Z,57.10
2023-03-04T14:47:26.781Z,57.70
2023-03-04T14:49:59.554Z,55.40
2023-03-04T14:52:39.046Z,55.30
2023-03-04T14:55:24.419Z,62.10
2023-03-04T14:58:08.462Z,60.00
2023-03-04T15:00:43.800Z,61.50
2023-03-04T15:03:25.089Z,58.80
2023-03-04T15:05:58.860Z,53.50
2023-03-04T15:08:36.001Z,53.80
2023-03-04T15:11:15.827Z,59.70
2023-03-04T15:13:51.249Z,62.30
2023-03-04T15:16:26.156Z,62.00
2023-03-04T15:19:01.360Z,57.30
2023-03-04T15:21:37.570Z,68.40
2023-03-04T15:24:13.896Z,63.90
2023-03-04T15:26:50.621Z,61.50
2023-03-04T15:29:24.240Z,57.50
2023-03-04T15:31:59.202Z,57.00
2023-03-04T15:34:32.466Z,50.80
2023-03-04T15:37:07.885Z,54.20
2023-03-04T15:39:41.148Z,58.70
2023-03-04T15:42:16.397Z,48.70
2023-03-04T15:44:49.736Z,52.60
2023-03-04T15:49:56.365Z,52.40
2023-03-04T15:52:29.136Z,49.90
2023-03-04T15:55:02.564Z,39.80
2023-03-04T15:57:37.505Z,53.90
2023-03-04T16:00:13.495Z,53.30
2023-03-04T16:02:47.039Z,52.00
2023-03-04T16:05:24.973Z,47.90
2023-03-04T16:07:59.185Z,49.30
2023-03-04T16:10:32.434Z,53.60
2023-03-04T16:13:05.701Z,44.30
2023-03-04T16:15:38.707Z,41.30
2023-03-04T16:18:12.046Z,44.10
2023-03-04T16:20:50.296Z,43.00
2023-03-04T16:23:26.009Z,45.80
2023-03-04T16:26:00.084Z,45.30
2023-03-04T16:28:33.224Z,53.70
2023-03-04T16:31:06.235Z,56.60
2023-03-04T16:33:40.457Z,60.00
2023-03-04T16:36:21.642Z,59.80
2023-03-04T16:38:59.644Z,59.70
2023-03-04T16:41:39.657Z,56.40
2023-03-04T16:44:20.528Z,61.10
2023-03-04T16:46:57.497Z,63.30
2023-03-04T16:49:35.737Z,57.80
2023-03-04T16:52:25.636Z,61.60
2023-03-04T16:55:01.165Z,72.10
2023-03-04T16:57:34.001Z,137.60
2023-03-04T17:00:09.276Z,71.30
2023-03-04T17:02:42.144Z,66.70
2023-03-04T17:05:20.234Z,66.20
2023-03-04T17:07:55.697Z,25.10
2023-03-04T17:10:28.683Z,56.80
2023-03-04T17:13:01.233Z,58.80
2023-03-04T17:15:34.283Z,60.90
2023-03-04T17:18:12.452Z,64.40
2023-03-04T17:20:46.183Z,53.90
2023-03-04T17:23:22.043Z,58.00
2023-03-04T17:26:03.046Z,54.70
2023-03-04T17:28:36.173Z,58.60
2023-03-04T17:31:14.570Z,61.60
2023-03-04T17:33:47.803Z,66.70
2023-03-04T17:36:22.218Z,61.00
2023-03-04T17:38:55.156Z,58.90
2023-03-04T17:41:27.857Z,51.60
2023-03-04T17:44:02.007Z,51.70
2023-03-04T17:46:36.213Z,48.10
2023-03-04T17:49:09.312Z,47.60
2023-03-04T17:51:56.403Z,45.30
2023-03-04T17:54:33.760Z,50.30
2023-03-04T17:57:12.674Z,48.10
2023-03-04T17:59:49.577Z,51.10
2023-03-04T18:02:26.878Z,51.30
2023-03-04T18:05:06.262Z,47.60
2023-03-04T18:07:39.688Z,48.80
2023-03-04T18:10:20.564Z,44.80
2023-03-04T18:13:02.302Z,53.40
2023-03-04T18:15:38.062Z,42.80
2023-03-04T18:18:11.437Z,48.60
2023-03-04T18:20:44.440Z,59.40
2023-03-04T18:23:20.325Z,49.80
2023-03-04T18:25:52.904Z,44.30
2023-03-04T18:28:26.337Z,43.80
2023-03-04T18:30:59.773Z,48.70
2023-03-04T18:33:34.291Z,44.90
2023-03-04T18:36:12.771Z,44.30
2023-03-04T18:38:46.129Z,48.30
2023-03-04T18:41:20.503Z,52.90
2023-03-04T18:43:54.381Z,42.20
2023-03-04T18:46:36.666Z,50.40
2023-03-04T18:49:12.480Z,51.60
2023-03-04T18:51:45.152Z,50.10
2023-03-04T18:54:23.870Z,50.30
2023-03-04T18:57:00.637Z,54.20
2023-03-04T18:59:37.579Z,48.90
2023-03-04T19:02:17.602Z,59.30
2023-03-04T19:04:51.216Z,57.90
2023-03-04T19:10:05.528Z,47.30
2023-03-04T19:12:50.152Z,46.30
2023-03-04T19:15:31.818Z,45.20
2023-03-04T19:18:14.466Z,43.20
2023-03-04T19:20:52.308Z,44.00
2023-03-04T19:23:31.918Z,43.20
2023-03-04T19:26:09.055Z,25.70
2023-03-04T19:28:46.657Z,18.20
2023-03-04T19:31:25.971Z,16.70
2023-03-04T19:34:04.614Z,16.50
2023-03-04T19:36:44.460Z,12.10
2023-03-04T19:39:23.144Z,13.00
2023-03-04T19:42:00.350Z,7.40
2023-03-04T19:44:37.974Z,8.40
2023-03-04T19:47:12.336Z,7.20
2023-03-04T19:49:50.281Z,7.60
2023-03-04T19:52:24.143Z,6.60
2023-03-04T19:54:57.232Z,15.30
2023-03-04T19:57:29.959Z,6.50
2023-03-04T20:00:05.272Z,7.20
2023-03-04T20:02:38.317Z,8.90
2023-03-04T20:05:12.851Z,7.70
2023-03-04T20:07:45.973Z,9.50
2023-03-04T20:12:54.140Z,26.50
2023-03-04T20:15:26.837Z,14.70
2023-03-04T20:17:59.709Z,33.20
2023-03-04T20:20:32.734Z,20.30
2023-03-04T20:23:06.076Z,13.40
2023-03-04T20:25:40.013Z,16.70
2023-03-04T20:28:13.175Z,16.20
2023-03-04T20:30:46.012Z,14.50
2023-03-04T20:33:19.403Z,16.70
2023-03-04T20:35:52.360Z,11.00
2023-03-04T20:38:25.362Z,24.00
2023-03-04T20:40:58.495Z,12.80
2023-03-04T20:43:31.918Z,13.40
2023-03-04T20:46:34.954Z,12.20
2023-03-04T20:49:09.892Z,12.30
2023-03-04T20:51:42.642Z,14.50
2023-03-04T20:54:16.232Z,12.00
2023-03-04T20:56:51.112Z,15.40
2023-03-04T20:59:24.085Z,12.60
2023-03-04T21:01:57.349Z,10.80
2023-03-04T21:04:32.514Z,9.80
2023-03-04T21:07:06.304Z,9.30
2023-03-04T21:09:39.193Z,8.50
2023-03-04T21:12:12.570Z,6.20
2023-03-04T21:14:46.069Z,15.00
2023-03-04T21:17:19.079Z,9.40
2023-03-04T21:19:51.797Z,12.80
2023-03-04T21:22:24.894Z,13.20
2023-03-04T21:24:57.736Z,13.10
2023-03-04T21:27:30.527Z,10.10
2023-03-04T21:30:04.209Z,12.60
2023-03-04T21:32:37.489Z,11.50
2023-03-04T21:35:14.890Z,11.80
2023-03-04T21:37:47.778Z,9.10
2023-03-04T21:40:21.172Z,11.50
2023-03-04T21:42:54.000Z,11.40
2023-03-04T21:45:26.793Z,12.00
2023-03-04T21:47:59.344Z,12.00
2023-03-04T21:50:32.279Z,12.70
2023-03-04T21:53:05.850Z,9.40
2023-03-04T21:55:42.652Z,12.10
2023-03-04T21:58:15.384Z,14.80
2023-03-04T22:00:50.141Z,15.10
2023-03-04T22:03:23.126Z,16.40
2023-03-04T22:05:59.807Z,16.70
2023-03-04T22:08:32.526Z,14.20
2023-03-04T22:11:09.988Z,9.00
2023-03-04T22:13:42.662Z,10.90
2023-03-04T22:16:15.735Z,13.80
2023-03-04T22:18:48.797Z,13.40
2023-03-04T22:21:23.587Z,14.30
2023-03-04T22:23:56.543Z,12.40
2023-03-04T22:26:32.970Z,15.00
2023-03-04T22:29:06.595Z,11.90
2023-03-04T22:31:40.063Z,13.50
2023-03-04T22:34:14.676Z,11.70
2023-03-04T22:36:49.659Z,12.10
2023-03-04T22:39:23.480Z,10.40
2023-03-04T22:41:56.088Z,10.80
2023-03-04T22:44:30.083Z,11.40
2023-03-04T22:47:02.747Z,12.30
2023-03-04T22:49:35.250Z,11.70
2023-03-04T22:52:08.119Z,10.80
2023-03-04T22:54:40.593Z,12.20
2023-03-04T22:57:13.424Z,12.50
2023-03-04T22:59:45.983Z,11.30
2023-03-04T23:02:18.771Z,8.90
2023-03-04T23:04:51.321Z,10.10
2023-03-04T23:07:24.215Z,12.10
2023-03-04T23:09:56.664Z,8.70
2023-03-04T23:12:29.530Z,10.60
2023-03-04T23:15:02.362Z,10.90
2023-03-04T23:17:35.707Z,10.40
2023-03-04T23:20:10.511Z,10.50
2023-03-04T23:22:44.523Z,11.00
2023-03-04T23:25:19.039Z,6.80
2023-03-04T23:27:53.277Z,8.20
2023-03-04T23:30:25.882Z,8.00
2023-03-04T23:32:58.719Z,8.60
2023-03-04T23:35:31.430Z,9.60
2023-03-04T23:38:04.422Z,9.20
2023-03-04T23:40:37.128Z,6.70
2023-03-04T23:43:09.928Z,10.80
2023-03-04T23:45:42.588Z,8.50
2023-03-04T23:48:15.334Z,12.10
2023-03-04T23:50:54.519Z,10.90
2023-03-04T23:53:27.685Z,12.80
2023-03-04T23:56:00.217Z,9.30
2023-03-04T23:58:33.224Z,13.10
